Main page
METAR-TAF:

METAR-TAF

Airports :

Kunming Changshui International Airport

Kunming, China

latitude: 25-01N, longitude: 102-41E, elevation: 1892 m

Current weather observation

The report was made 1 hour and 12 minutes ago, at 18:00 UTC
Wind 8 kt from the Northeast
Temperature 5°C
Humidity 93%
Pressure 1022 hPa
Visibility: 8000 m

METAR: ZPPP 011800Z 04004MPS 8000 NSC 05/04 Q1022 NOSIG

Time: 03:12 (19:12 UTC)

Forecast

The report was made 4 hours and 3 minutes ago, at 15:09 UTC
Forecast valid from 01 at 18 UTC to 02 at 18 UTC
Wind 8 kt from the Southwest
Visibility 10 km or more
Scattered clouds at a height of 2600 ft
Becoming
from 02 at 02 UTC to 02 at 03 UTC
Wind 17 kt from the Southwest
Becoming
from 02 at 11 UTC to 02 at 12 UTC
Wind 8 kt from the Southwest

TAF: ZPPP 011509Z 0118/0218 22004MPS 9999 SCT026 TX21/0208Z TN10/0123Z BECMG 0202/0203 22009MPS BECMG 0211/0212 22004MPS

Weather observations and forecasts of more than 4000 airports (METAR and TAF reports).

The available stations are represented by yellow and red dots on the map.

Hover mouse over dot to see the name of the station.

Then click to see weather observations and forecasts.

To change the map : click on the green buttons with a black cross to zoom in, on the green button with a dash to zoom out, or on the green arrows for adjacent maps.


METAR-TAF: